createdAt,value
2022-09-27T00:01:00.715Z,5.63
2022-09-27T00:03:28.595Z,2.88
2022-09-27T00:06:16.265Z,4.97
2022-09-27T00:08:43.382Z,3.00
2022-09-27T00:11:30.344Z,7.68
2022-09-27T00:13:58.674Z,3.80
2022-09-27T00:16:35.355Z,3.60
2022-09-27T00:19:04.625Z,7.32
2022-09-27T00:21:31.965Z,5.72
2022-09-27T00:23:59.175Z,5.88
2022-09-27T00:26:26.519Z,3.05
2022-09-27T00:28:53.533Z,4.00
2022-09-27T00:31:29.860Z,6.53
2022-09-27T00:33:58.735Z,3.90
2022-09-27T00:36:26.868Z,4.53
2022-09-27T00:38:53.828Z,3.20
2022-09-27T00:41:32.820Z,3.45
2022-09-27T00:44:04.270Z,4.20
2022-09-27T00:46:39.045Z,2.55
2022-09-27T00:49:16.767Z,3.00
2022-09-27T00:51:47.030Z,3.80
2022-09-27T00:54:16.113Z,5.60
2022-09-27T00:56:44.122Z,2.70
2022-09-27T00:59:23.386Z,3.10
2022-09-27T01:01:50.925Z,2.30
2022-09-27T01:04:24.564Z,2.92
2022-09-27T01:06:52.751Z,4.43
2022-09-27T01:09:20.825Z,5.47
2022-09-27T01:11:59.346Z,2.20
2022-09-27T01:14:52.791Z,2.42
2022-09-27T01:17:43.037Z,5.75
2022-09-27T01:21:08.638Z,4.65
2022-09-27T01:24:20.839Z,4.18
2022-09-27T01:27:06.213Z,5.88
2022-09-27T01:30:10.594Z,4.32
2022-09-27T01:32:52.299Z,6.43
2022-09-27T01:35:31.135Z,3.40
2022-09-27T01:38:31.793Z,2.92
2022-09-27T01:41:23.831Z,3.53
2022-09-27T01:44:36.733Z,2.83
2022-09-27T01:47:18.871Z,2.75
2022-09-27T01:50:02.115Z,4.00
2022-09-27T01:52:40.154Z,4.35
2022-09-27T01:55:10.394Z,4.15
2022-09-27T01:58:22.696Z,2.60
2022-09-27T02:00:54.361Z,3.88
2022-09-27T02:03:28.600Z,5.85
2022-09-27T02:06:36.195Z,5.53
2022-09-27T02:09:30.905Z,2.00
2022-09-27T02:12:46.341Z,4.00
2022-09-27T02:15:15.193Z,2.45
2022-09-27T02:17:54.026Z,4.85
2022-09-27T02:20:44.759Z,3.88
2022-09-27T02:23:16.952Z,4.10
2022-09-27T02:26:03.380Z,3.58
2022-09-27T02:28:43.707Z,5.18
2022-09-27T02:31:13.798Z,4.20
2022-09-27T02:33:47.302Z,9.70
2022-09-27T02:36:13.813Z,2.70
2022-09-27T02:38:41.257Z,3.83
2022-09-27T02:41:19.603Z,2.45
2022-09-27T02:43:49.893Z,4.05
2022-09-27T02:46:49.359Z,3.75
2022-09-27T02:49:54.228Z,2.47
2022-09-27T02:53:14.375Z,5.65
2022-09-27T02:56:40.406Z,3.17
2022-09-27T02:59:49.480Z,3.22
2022-09-27T03:02:35.801Z,2.95
2022-09-27T03:05:48.728Z,2.47
2022-09-27T03:08:16.705Z,4.72
2022-09-27T03:10:43.258Z,2.88
2022-09-27T03:13:10.850Z,3.65
2022-09-27T03:15:37.527Z,5.35
2022-09-27T03:18:05.760Z,2.92
2022-09-27T03:20:53.307Z,4.32
2022-09-27T03:23:21.422Z,2.70
2022-09-27T03:25:48.633Z,2.42
2022-09-27T03:28:15.794Z,3.17
2022-09-27T03:30:45.412Z,3.72
2022-09-27T03:33:14.760Z,4.10
2022-09-27T03:35:55.469Z,3.22
2022-09-27T03:38:21.895Z,2.33
2022-09-27T03:40:48.484Z,2.63
2022-09-27T03:43:15.005Z,5.13
2022-09-27T03:45:45.178Z,4.35
2022-09-27T03:48:11.699Z,2.83
2022-09-27T03:50:38.387Z,4.15
2022-09-27T03:53:05.479Z,2.65
2022-09-27T03:55:32.285Z,2.92
2022-09-27T03:57:58.789Z,3.03
2022-09-27T04:00:26.036Z,3.35
2022-09-27T04:02:52.768Z,4.15
2022-09-27T04:05:23.759Z,3.55
2022-09-27T04:07:53.448Z,3.25
2022-09-27T04:10:20.327Z,3.22
2022-09-27T04:12:46.988Z,3.85
2022-09-27T04:15:13.712Z,5.05
2022-09-27T04:17:49.580Z,3.60
2022-09-27T04:20:35.021Z,5.00
2022-09-27T04:23:08.122Z,3.33
2022-09-27T04:25:37.174Z,4.07
2022-09-27T04:28:18.638Z,2.75
2022-09-27T04:30:46.303Z,2.80
2022-09-27T04:33:13.423Z,2.38
2022-09-27T04:36:18.158Z,3.17
2022-09-27T04:39:08.709Z,3.00
2022-09-27T04:41:37.862Z,3.15
2022-09-27T04:44:06.492Z,8.05
2022-09-27T04:46:34.487Z,3.20
2022-09-27T04:49:01.863Z,3.08
2022-09-27T04:51:29.987Z,3.58
2022-09-27T04:53:58.052Z,4.97
2022-09-27T04:56:30.128Z,4.47
2022-09-27T04:58:56.587Z,5.68
2022-09-27T05:01:23.235Z,4.82
2022-09-27T05:03:58.682Z,5.47
2022-09-27T05:06:26.507Z,5.72
2022-09-27T05:08:56.047Z,8.48
2022-09-27T05:11:26.575Z,9.63
2022-09-27T05:14:13.954Z,9.50
2022-09-27T05:16:49.765Z,10.05
2022-09-27T05:19:28.646Z,7.15
2022-09-27T05:24:51.446Z,14.02
2022-09-27T05:27:20.145Z,12.52
2022-09-27T05:29:47.900Z,21.00
2022-09-27T05:32:23.719Z,11.32
2022-09-27T05:35:00.034Z,10.55
2022-09-27T05:37:26.658Z,11.88
2022-09-27T05:39:53.223Z,14.35
2022-09-27T05:42:21.408Z,12.25
2022-09-27T05:44:48.357Z,15.57
2022-09-27T05:47:15.809Z,14.35
2022-09-27T05:49:42.335Z,17.23
2022-09-27T05:52:15.020Z,15.75
2022-09-27T05:54:43.453Z,18.80
2022-09-27T05:57:09.903Z,40.67
2022-09-27T05:59:43.286Z,21.58
2022-09-27T06:02:21.642Z,21.75
2022-09-27T06:05:21.041Z,22.40
2022-09-27T06:10:41.611Z,25.58
2022-09-27T06:13:12.194Z,24.33
2022-09-27T06:15:43.495Z,21.17
2022-09-27T06:18:13.146Z,23.02
2022-09-27T06:20:41.370Z,23.85
2022-09-27T06:23:12.108Z,24.98
2022-09-27T06:25:39.533Z,25.98
2022-09-27T06:28:16.065Z,27.42
2022-09-27T06:30:46.824Z,21.67
2022-09-27T06:33:22.482Z,19.33
2022-09-27T06:35:53.865Z,22.67
2022-09-27T06:38:21.257Z,26.13
2022-09-27T06:43:55.473Z,18.58
2022-09-27T06:49:31.488Z,12.68
2022-09-27T06:51:57.863Z,12.50
2022-09-27T06:54:24.300Z,12.82
2022-09-27T06:56:50.745Z,9.18
2022-09-27T06:59:36.005Z,10.02
2022-09-27T07:02:21.255Z,13.05
2022-09-27T07:04:59.194Z,8.30
2022-09-27T07:07:53.616Z,8.45
2022-09-27T07:10:20.041Z,6.85
2022-09-27T07:12:49.154Z,7.80
2022-09-27T07:15:17.173Z,3.25
2022-09-27T07:17:43.961Z,7.65
2022-09-27T07:20:10.390Z,4.93
2022-09-27T07:22:41.981Z,3.63
2022-09-27T07:25:09.756Z,3.05
2022-09-27T07:27:38.794Z,3.70
2022-09-27T07:30:09.587Z,2.90
2022-09-27T07:32:36.805Z,7.20
2022-09-27T07:35:07.882Z,1.48
2022-09-27T07:37:35.683Z,3.05
2022-09-27T07:40:03.660Z,2.00
2022-09-27T07:42:30.877Z,5.90
2022-09-27T07:44:57.631Z,7.32
2022-09-27T07:47:30.732Z,1.33
2022-09-27T07:50:10.592Z,2.17
2022-09-27T07:52:56.618Z,2.58
2022-09-27T07:55:28.966Z,2.88
2022-09-27T07:58:07.079Z,4.90
2022-09-27T08:00:33.692Z,1.10
2022-09-27T08:03:05.163Z,3.20
2022-09-27T08:05:31.684Z,5.47
2022-09-27T08:07:58.106Z,1.90
2022-09-27T08:10:31.195Z,3.67
2022-09-27T08:13:01.069Z,2.03
2022-09-27T08:15:28.521Z,4.43
2022-09-27T08:17:55.414Z,1.58
2022-09-27T08:20:29.741Z,2.15
2022-09-27T08:23:06.245Z,3.42
2022-09-27T08:25:40.156Z,2.28
2022-09-27T08:28:27.065Z,1.88
2022-09-27T08:31:02.305Z,4.80
2022-09-27T08:33:32.518Z,3.53
2022-09-27T08:36:01.676Z,2.15
2022-09-27T08:38:28.573Z,2.53
2022-09-27T08:40:59.083Z,5.68
2022-09-27T08:43:51.060Z,0.68
2022-09-27T08:46:59.041Z,1.85
2022-09-27T08:49:54.586Z,3.78
2022-09-27T08:52:32.852Z,1.77
2022-09-27T08:55:06.146Z,2.00
2022-09-27T08:57:32.569Z,1.88
2022-09-27T09:00:11.801Z,2.38
2022-09-27T09:02:38.542Z,4.90
2022-09-27T09:05:15.359Z,3.33
2022-09-27T09:08:19.071Z,5.13
2022-09-27T09:11:17.629Z,3.30
2022-09-27T09:14:12.794Z,5.93
2022-09-27T09:17:15.041Z,7.13
2022-09-27T09:20:17.395Z,1.70
2022-09-27T09:23:17.211Z,3.92
2022-09-27T09:26:13.778Z,0.90
2022-09-27T09:28:52.911Z,4.90
2022-09-27T09:32:10.692Z,6.53
2022-09-27T09:34:43.431Z,2.35
2022-09-27T09:37:30.584Z,1.10
2022-09-27T09:40:06.800Z,1.73
2022-09-27T09:42:58.968Z,2.05
2022-09-27T09:45:32.950Z,2.38
2022-09-27T09:48:08.324Z,1.75
2022-09-27T09:50:47.498Z,2.67
2022-09-27T09:53:44.266Z,1.17
2022-09-27T09:56:20.929Z,2.20
2022-09-27T09:58:51.952Z,4.53
2022-09-27T10:01:35.954Z,1.98
2022-09-27T10:04:03.684Z,3.00
2022-09-27T10:06:31.793Z,5.45
2022-09-27T10:09:00.507Z,2.05
2022-09-27T10:11:46.199Z,2.53
2022-09-27T10:14:21.824Z,0.68
2022-09-27T10:16:58.512Z,0.63
2022-09-27T10:19:34.194Z,1.42
2022-09-27T10:22:16.798Z,3.55
2022-09-27T10:25:06.655Z,3.70
2022-09-27T10:27:54.546Z,0.75
2022-09-27T10:30:32.114Z,0.55
2022-09-27T10:33:06.601Z,1.15
2022-09-27T10:35:46.921Z,4.88
2022-09-27T10:38:34.732Z,0.63
2022-09-27T10:41:23.323Z,0.43
2022-09-27T10:43:50.889Z,1.25
2022-09-27T10:46:28.776Z,1.50
2022-09-27T10:49:15.709Z,1.33
2022-09-27T10:51:44.082Z,0.77
2022-09-27T10:54:37.591Z,4.97
2022-09-27T10:57:13.481Z,0.47
2022-09-27T10:59:45.646Z,1.95
2022-09-27T11:02:33.683Z,0.35
2022-09-27T11:05:31.487Z,1.75
2022-09-27T11:08:02.896Z,1.92
2022-09-27T11:10:40.357Z,4.20
2022-09-27T11:13:09.059Z,0.43
2022-09-27T11:15:53.013Z,0.52
2022-09-27T11:18:41.649Z,0.20
2022-09-27T11:21:40.008Z,0.70
2022-09-27T11:24:15.759Z,0.77
2022-09-27T11:26:58.583Z,0.65
2022-09-27T11:29:52.891Z,0.50
2022-09-27T11:33:00.341Z,8.15
2022-09-27T11:35:37.387Z,2.83
2022-09-27T11:38:40.902Z,0.95
2022-09-27T11:41:38.593Z,1.27
2022-09-27T11:44:25.640Z,2.20
2022-09-27T11:47:14.067Z,2.53
2022-09-27T11:50:02.810Z,3.17
2022-09-27T11:52:48.099Z,1.83
2022-09-27T11:55:18.768Z,2.92
2022-09-27T11:57:57.026Z,1.52
2022-09-27T12:00:30.682Z,1.75
2022-09-27T12:03:39.864Z,1.23
2022-09-27T12:06:13.416Z,2.92
2022-09-27T12:08:51.208Z,0.30
2022-09-27T12:11:41.768Z,6.60
2022-09-27T12:14:27.384Z,1.88
2022-09-27T12:16:56.984Z,4.78
2022-09-27T12:19:28.655Z,4.70
2022-09-27T12:22:16.281Z,1.10
2022-09-27T12:24:46.676Z,5.05
2022-09-27T12:27:39.179Z,2.40
2022-09-27T12:30:12.403Z,3.67
2022-09-27T12:33:11.403Z,1.13
2022-09-27T12:35:46.903Z,0.60
2022-09-27T12:38:26.559Z,1.17
2022-09-27T12:40:58.431Z,1.13
2022-09-27T12:43:36.203Z,1.50
2022-09-27T12:46:31.737Z,1.02
2022-09-27T12:49:10.008Z,1.15
2022-09-27T12:51:42.712Z,0.90
2022-09-27T12:54:12.458Z,1.85
2022-09-27T12:57:01.875Z,0.35
2022-09-27T12:59:46.900Z,1.75
2022-09-27T13:05:22.506Z,0.50
2022-09-27T13:08:01.884Z,0.63
2022-09-27T13:10:40.030Z,6.55
2022-09-27T13:13:22.920Z,5.47
2022-09-27T13:15:50.091Z,0.60
2022-09-27T13:18:35.361Z,0.65
2022-09-27T13:21:04.650Z,0.90
2022-09-27T13:23:57.886Z,2.17
2022-09-27T13:26:35.941Z,1.10
2022-09-27T13:29:22.131Z,1.13
2022-09-27T13:32:02.449Z,0.65
2022-09-27T13:34:44.489Z,1.77
2022-09-27T13:37:39.962Z,0.90
2022-09-27T13:40:37.241Z,2.65
2022-09-27T13:43:49.409Z,0.40
2022-09-27T13:46:34.753Z,2.65
2022-09-27T13:49:20.086Z,2.53
2022-09-27T13:52:27.480Z,1.42
2022-09-27T13:55:48.308Z,1.02
2022-09-27T13:58:54.492Z,0.20
2022-09-27T14:01:59.727Z,1.00
2022-09-27T14:04:41.118Z,0.85
2022-09-27T14:07:12.723Z,0.43
2022-09-27T14:09:43.716Z,0.17
2022-09-27T14:12:37.307Z,2.17
2022-09-27T14:15:10.220Z,1.00
2022-09-27T14:17:45.627Z,4.38
2022-09-27T14:20:52.579Z,2.05
2022-09-27T14:23:42.268Z,4.13
2022-09-27T14:26:28.089Z,1.95
2022-09-27T14:28:54.692Z,5.18
2022-09-27T14:31:26.903Z,1.88
2022-09-27T14:34:16.074Z,1.63
2022-09-27T14:37:07.758Z,3.72
2022-09-27T14:40:06.702Z,0.80
2022-09-27T14:42:36.707Z,0.93
2022-09-27T14:45:22.592Z,2.70
2022-09-27T14:47:51.060Z,4.07
2022-09-27T14:50:23.700Z,0.60
2022-09-27T14:52:55.324Z,3.05
2022-09-27T14:55:28.389Z,3.13
2022-09-27T14:57:58.224Z,2.30
2022-09-27T15:00:31.215Z,2.72
2022-09-27T15:03:00.619Z,1.00
2022-09-27T15:05:29.593Z,3.97
2022-09-27T15:07:58.369Z,3.25
2022-09-27T15:10:31.206Z,0.55
2022-09-27T15:13:01.290Z,2.10
2022-09-27T15:15:31.768Z,5.22
2022-09-27T15:17:59.567Z,4.85
2022-09-27T15:20:34.837Z,1.30
2022-09-27T15:23:04.094Z,1.17
2022-09-27T15:25:38.066Z,5.78
2022-09-27T15:28:12.968Z,1.65
2022-09-27T15:30:43.196Z,0.93
2022-09-27T15:33:21.978Z,0.85
2022-09-27T15:35:51.558Z,0.88
2022-09-27T15:38:28.333Z,2.03
2022-09-27T15:40:54.914Z,6.47
2022-09-27T15:43:46.025Z,3.97
2022-09-27T15:46:39.029Z,3.38
2022-09-27T15:49:17.993Z,3.08
2022-09-27T15:51:46.565Z,1.65
2022-09-27T15:54:13.161Z,0.50
2022-09-27T15:56:40.130Z,2.88
2022-09-27T15:59:13.688Z,1.45
2022-09-27T16:01:40.183Z,1.25
2022-09-27T16:04:08.753Z,0.43
2022-09-27T16:06:35.320Z,3.08
2022-09-27T16:09:01.885Z,3.45
2022-09-27T16:11:28.394Z,1.65
2022-09-27T16:13:55.077Z,1.42
2022-09-27T16:16:22.402Z,3.40
2022-09-27T16:18:48.934Z,1.25
2022-09-27T16:21:15.503Z,1.20
2022-09-27T16:23:42.021Z,3.78
2022-09-27T16:26:08.486Z,1.48
2022-09-27T16:28:35.087Z,3.53
2022-09-27T16:31:04.008Z,4.07
2022-09-27T16:33:32.630Z,0.82
2022-09-27T16:36:01.351Z,1.10
2022-09-27T16:38:30.141Z,3.50
2022-09-27T16:41:03.340Z,0.63
2022-09-27T16:43:31.550Z,1.17
2022-09-27T16:46:11.534Z,1.92
2022-09-27T16:48:39.095Z,4.32
2022-09-27T16:51:29.299Z,0.70
2022-09-27T16:53:55.901Z,2.00
2022-09-27T16:56:22.670Z,4.30
2022-09-27T16:58:49.215Z,7.22
2022-09-27T17:01:18.843Z,0.65
2022-09-27T17:03:52.595Z,2.78
2022-09-27T17:06:23.093Z,1.70
2022-09-27T17:08:49.653Z,5.80
2022-09-27T17:11:18.769Z,3.47
2022-09-27T17:13:49.124Z,5.22
2022-09-27T17:16:16.001Z,7.20
2022-09-27T17:18:42.831Z,0.57
2022-09-27T17:21:10.053Z,2.90
2022-09-27T17:23:36.514Z,2.58
2022-09-27T17:26:09.047Z,3.50
2022-09-27T17:28:36.593Z,1.73
2022-09-27T17:31:10.160Z,2.53
2022-09-27T17:33:43.351Z,1.63
2022-09-27T17:36:17.186Z,2.10
2022-09-27T17:38:45.303Z,1.40
2022-09-27T17:41:14.510Z,3.65
2022-09-27T17:43:49.866Z,1.35
2022-09-27T17:46:18.704Z,1.30
2022-09-27T17:49:04.397Z,3.10
2022-09-27T17:53:58.328Z,1.10
2022-09-27T17:56:24.760Z,2.15
2022-09-27T17:58:53.979Z,2.28
2022-09-27T18:01:22.477Z,2.25
2022-09-27T18:03:54.173Z,6.55
2022-09-27T18:06:21.891Z,3.83
2022-09-27T18:08:48.686Z,1.85
2022-09-27T18:11:17.777Z,2.00
2022-09-27T18:13:44.757Z,1.02
2022-09-27T18:16:17.737Z,3.80
2022-09-27T18:18:50.315Z,4.55
2022-09-27T18:21:23.141Z,5.93
2022-09-27T18:23:54.061Z,3.65
2022-09-27T18:26:24.277Z,1.95
2022-09-27T18:28:55.635Z,1.08
2022-09-27T18:31:23.481Z,4.43
2022-09-27T18:33:50.455Z,2.28
2022-09-27T18:36:20.091Z,4.53
2022-09-27T18:38:51.983Z,5.90
2022-09-27T18:41:20.434Z,1.30
2022-09-27T18:43:47.780Z,2.80
2022-09-27T18:46:35.104Z,4.35
2022-09-27T18:49:07.353Z,1.88
2022-09-27T18:51:37.224Z,2.72
2022-09-27T18:54:07.528Z,2.05
2022-09-27T18:56:39.492Z,4.45
2022-09-27T18:59:10.770Z,2.30
2022-09-27T19:01:44.799Z,2.65
2022-09-27T19:04:14.381Z,2.28
2022-09-27T19:06:41.790Z,4.10
2022-09-27T19:09:10.767Z,2.20
2022-09-27T19:11:37.592Z,5.20
2022-09-27T19:14:04.197Z,5.18
2022-09-27T19:16:30.913Z,3.22
2022-09-27T19:18:57.447Z,4.85
2022-09-27T19:21:27.038Z,3.20
2022-09-27T19:23:54.207Z,7.95
2022-09-27T19:26:23.729Z,4.35
2022-09-27T19:28:51.508Z,9.05
2022-09-27T19:31:23.825Z,4.80
2022-09-27T19:33:50.945Z,2.65
2022-09-27T19:36:19.638Z,10.50
2022-09-27T19:38:47.174Z,4.95
2022-09-27T19:41:15.544Z,3.42
2022-09-27T19:43:45.158Z,3.15
2022-09-27T19:46:17.781Z,5.45
2022-09-27T19:48:45.940Z,3.47
2022-09-27T19:51:34.047Z,6.45
2022-09-27T19:54:00.679Z,5.78
2022-09-27T19:56:27.279Z,5.53
2022-09-27T19:58:54.406Z,7.88
2022-09-27T20:01:23.372Z,5.97
2022-09-27T20:03:52.328Z,5.47
2022-09-27T20:06:20.315Z,12.00
2022-09-27T20:08:47.794Z,5.15
2022-09-27T20:11:19.874Z,5.13
2022-09-27T20:13:47.241Z,10.77
2022-09-27T20:16:18.918Z,4.85
2022-09-27T20:18:51.131Z,4.35
2022-09-27T20:21:19.150Z,6.03
2022-09-27T20:23:49.477Z,6.80
2022-09-27T20:26:17.282Z,5.13
2022-09-27T20:28:45.711Z,4.97
2022-09-27T20:31:14.742Z,5.70
2022-09-27T20:33:41.629Z,5.63
2022-09-27T20:36:16.989Z,9.55
2022-09-27T20:38:45.660Z,8.43
2022-09-27T20:41:16.387Z,7.75
2022-09-27T20:43:42.954Z,6.30
2022-09-27T20:46:15.678Z,5.85
2022-09-27T20:48:43.359Z,14.88
2022-09-27T20:51:14.221Z,6.18
2022-09-27T20:53:42.199Z,5.72
2022-09-27T20:56:40.636Z,8.35
2022-09-27T20:59:14.993Z,7.30
2022-09-27T21:01:46.056Z,9.00
2022-09-27T21:04:17.081Z,9.32
2022-09-27T21:06:44.405Z,8.23
2022-09-27T21:09:18.421Z,5.82
2022-09-27T21:11:46.870Z,9.38
2022-09-27T21:14:13.381Z,5.65
2022-09-27T21:16:40.209Z,6.03
2022-09-27T21:19:06.766Z,11.90
2022-09-27T21:21:33.402Z,9.50
2022-09-27T21:24:01.884Z,6.25
2022-09-27T21:26:31.016Z,6.10
2022-09-27T21:28:59.712Z,6.78
2022-09-27T21:31:29.701Z,4.95
2022-09-27T21:34:01.181Z,5.40
2022-09-27T21:36:35.730Z,5.75
2022-09-27T21:39:03.012Z,5.75
2022-09-27T21:41:29.471Z,6.18
2022-09-27T21:43:56.213Z,7.63
2022-09-27T21:46:25.251Z,10.00
2022-09-27T21:48:55.459Z,4.70
2022-09-27T21:51:24.623Z,7.80
2022-09-27T21:53:54.210Z,4.00
2022-09-27T21:56:22.410Z,6.32
2022-09-27T21:58:49.047Z,12.93
2022-09-27T22:01:18.148Z,6.72
2022-09-27T22:03:46.399Z,5.95
2022-09-27T22:06:15.523Z,4.32
2022-09-27T22:08:42.346Z,7.65
2022-09-27T22:11:09.460Z,8.18
2022-09-27T22:13:36.095Z,7.15
2022-09-27T22:16:08.249Z,3.33
2022-09-27T22:18:37.335Z,4.88
2022-09-27T22:21:05.862Z,6.43
2022-09-27T22:23:33.115Z,5.22
2022-09-27T22:26:00.183Z,4.88
2022-09-27T22:28:27.076Z,9.32
2022-09-27T22:30:53.642Z,5.13
2022-09-27T22:33:20.268Z,5.28
2022-09-27T22:35:48.035Z,6.60
2022-09-27T22:38:15.564Z,8.13
2022-09-27T22:40:42.101Z,7.18
2022-09-27T22:43:08.529Z,6.65
2022-09-27T22:45:34.980Z,10.07
2022-09-27T22:48:01.683Z,6.78
2022-09-27T22:50:28.101Z,6.22
2022-09-27T22:52:54.530Z,5.95
2022-09-27T22:55:20.953Z,5.38
2022-09-27T22:57:48.207Z,5.10
2022-09-27T23:00:14.726Z,13.57
2022-09-27T23:02:41.225Z,7.18
2022-09-27T23:05:08.171Z,8.38
2022-09-27T23:07:34.663Z,6.03
2022-09-27T23:10:01.108Z,8.10
2022-09-27T23:12:27.737Z,5.13
2022-09-27T23:14:54.275Z,7.82
2022-09-27T23:17:20.703Z,14.60
2022-09-27T23:19:47.192Z,8.93
2022-09-27T23:22:13.642Z,9.68
2022-09-27T23:24:40.098Z,8.60
2022-09-27T23:27:25.265Z,7.65
2022-09-27T23:29:51.683Z,8.20
2022-09-27T23:32:18.121Z,11.15
2022-09-27T23:34:44.627Z,7.18
2022-09-27T23:37:11.063Z,11.10
2022-09-27T23:39:38.248Z,7.88
2022-09-27T23:42:04.751Z,5.55
2022-09-27T23:44:31.247Z,7.63
2022-09-27T23:47:00.378Z,7.15
2022-09-27T23:49:27.715Z,9.15
2022-09-27T23:51:55.460Z,10.85
2022-09-27T23:54:21.928Z,7.40
2022-09-27T23:56:49.282Z,8.07
2022-09-27T23:59:16.922Z,8.02
